createdAt,value
2023-11-12T00:00:00.978Z,101579.16
2023-11-12T00:05:04.047Z,101582.34
2023-11-12T00:10:09.016Z,101578.78
2023-11-12T00:15:14.531Z,101569.72
2023-11-12T00:20:18.372Z,101563.88
2023-11-12T00:25:22.285Z,101569.69
2023-11-12T00:30:27.663Z,101570.09
2023-11-12T00:35:30.577Z,101568.06
2023-11-12T00:40:34.318Z,101578.16
2023-11-12T00:45:40.151Z,101570.78
2023-11-12T00:50:43.897Z,101573.31
2023-11-12T00:55:47.892Z,101576.63
2023-11-12T01:00:53.276Z,101574.56
2023-11-12T01:05:56.987Z,101574.06
2023-11-12T01:11:01.090Z,101567.47
2023-11-12T01:16:07.022Z,101562.50
2023-11-12T01:21:10.875Z,101568.47
2023-11-12T01:26:14.648Z,101566.56
2023-11-12T01:31:21.004Z,101555.81
2023-11-12T01:36:24.725Z,101557.88
2023-11-12T01:41:28.579Z,101560.97
2023-11-12T01:46:35.569Z,101563.28
2023-11-12T01:51:39.968Z,101560.88
2023-11-12T01:56:43.958Z,101558.78
2023-11-12T02:01:50.459Z,101557.47
2023-11-12T02:06:54.184Z,101560.28
2023-11-12T02:11:58.394Z,101554.81
2023-11-12T02:17:03.725Z,101558.66
2023-11-12T02:22:07.643Z,101552.34
2023-11-12T02:27:13.051Z,101555.94
2023-11-12T02:32:16.873Z,101554.59
2023-11-12T02:37:20.600Z,101547.84
2023-11-12T02:42:26.025Z,101547.38
2023-11-12T02:47:29.787Z,101546.25
2023-11-12T02:52:33.668Z,101554.34
2023-11-12T02:57:39.099Z,101557.84
2023-11-12T03:02:43.009Z,101558.19
2023-11-12T03:07:46.734Z,101559.34
2023-11-12T03:12:53.207Z,101558.59
2023-11-12T03:17:56.959Z,101560.19
2023-11-12T03:23:00.680Z,101568.88
2023-11-12T03:28:06.281Z,101557.13
2023-11-12T03:33:10.204Z,101556.78
2023-11-12T03:38:14.032Z,101552.31
2023-11-12T03:43:19.490Z,101552.34
2023-11-12T03:48:24.797Z,101557.28
2023-11-12T03:53:28.500Z,101559.13
2023-11-12T03:58:33.863Z,101549.81
2023-11-12T04:03:37.831Z,101559.41
2023-11-12T04:08:41.763Z,101566.44
2023-11-12T04:13:48.140Z,101561.34
2023-11-12T04:18:52.090Z,101566.16
2023-11-12T04:23:55.789Z,101572.16
2023-11-12T04:29:01.109Z,101567.13
2023-11-12T04:34:05.622Z,101565.28
2023-11-12T04:39:09.327Z,101560.09
2023-11-12T04:44:14.722Z,101570.72
2023-11-12T04:49:18.467Z,101568.34
2023-11-12T04:54:22.254Z,101556.97
2023-11-12T04:59:27.617Z,101549.41
2023-11-12T05:04:31.316Z,101558.38
2023-11-12T05:09:35.276Z,101555.78
2023-11-12T05:14:40.702Z,101551.41
2023-11-12T05:19:45.378Z,101549.03
2023-11-12T05:24:50.356Z,101556.91
2023-11-12T05:29:55.770Z,101548.56
2023-11-12T05:34:59.572Z,101567.06
2023-11-12T05:40:03.308Z,101558.25
2023-11-12T05:45:09.707Z,101556.56
2023-11-12T05:50:13.441Z,101562.84
2023-11-12T05:55:17.310Z,101560.38
2023-11-12T06:00:23.022Z,101558.59
2023-11-12T06:05:26.769Z,101562.25
2023-11-12T06:10:31.151Z,101568.41
2023-11-12T06:15:36.545Z,101566.69
2023-11-12T06:20:40.262Z,101572.06
2023-11-12T06:25:44.006Z,101560.13
2023-11-12T06:30:50.629Z,101552.13
2023-11-12T06:35:54.432Z,101554.03
2023-11-12T06:40:58.121Z,101552.25
2023-11-12T06:46:05.473Z,101544.53
2023-11-12T06:51:09.175Z,101543.81
2023-11-12T06:56:12.839Z,101547.28
2023-11-12T07:01:18.215Z,101555.03
2023-11-12T07:06:22.006Z,101554.59
2023-11-12T07:11:25.750Z,101552.72
2023-11-12T07:16:31.159Z,101554.59
2023-11-12T07:21:34.890Z,101547.84
2023-11-12T07:26:38.585Z,101551.25
2023-11-12T07:31:44.662Z,101554.84
2023-11-12T07:36:47.608Z,101557.41
2023-11-12T07:41:51.306Z,101557.53
2023-11-12T07:46:56.803Z,101548.13
2023-11-12T07:52:00.649Z,101549.03
2023-11-12T07:57:04.559Z,101547.47
2023-11-12T08:02:09.907Z,101538.72
2023-11-12T08:07:13.780Z,101534.38
2023-11-12T08:12:17.653Z,101538.84
2023-11-12T08:17:23.102Z,101534.59
2023-11-12T08:22:26.822Z,101518.00
2023-11-12T08:27:30.548Z,101511.19
2023-11-12T08:32:36.005Z,101508.44
2023-11-12T08:37:39.810Z,101499.75
2023-11-12T08:42:43.569Z,101500.81
2023-11-12T08:47:48.955Z,101499.91
2023-11-12T08:52:52.652Z,101488.84
2023-11-12T08:57:56.432Z,101480.16
2023-11-12T09:03:02.883Z,101484.47
2023-11-12T09:08:07.497Z,101484.56
2023-11-12T09:13:11.277Z,101478.56
2023-11-12T09:18:16.627Z,101484.75
2023-11-12T09:23:20.311Z,101479.53
2023-11-12T09:28:24.052Z,101485.59
2023-11-12T09:33:29.497Z,101489.97
2023-11-12T09:38:36.367Z,101482.97
2023-11-12T09:43:40.095Z,101479.50
2023-11-12T09:48:45.649Z,101468.13
2023-11-12T09:53:49.507Z,101464.78
2023-11-12T09:58:53.227Z,101460.47
2023-11-12T10:03:58.704Z,101451.69
2023-11-12T10:09:02.480Z,101450.97
2023-11-12T10:14:15.502Z,101448.31
2023-11-12T10:19:20.853Z,101442.38
2023-11-12T10:24:24.927Z,101446.00
2023-11-12T10:29:28.708Z,101438.22
2023-11-12T10:34:34.227Z,101435.53
2023-11-12T10:39:40.207Z,101437.25
2023-11-12T10:44:47.556Z,101434.59
2023-11-12T10:49:53.635Z,101434.56
2023-11-12T10:54:58.928Z,101434.59
2023-11-12T11:00:05.426Z,101422.50
2023-11-12T11:05:11.271Z,101422.56
2023-11-12T11:10:15.177Z,101416.44
2023-11-12T11:15:41.276Z,101415.59
2023-11-12T11:21:13.954Z,101416.50
2023-11-12T11:26:35.676Z,101404.41
2023-11-12T11:31:40.319Z,101401.97
2023-11-12T11:36:58.724Z,101391.53
2023-11-12T11:42:18.637Z,101401.13
2023-11-12T11:47:23.336Z,101393.31
2023-11-12T11:52:29.824Z,101395.00
2023-11-12T11:57:33.925Z,101390.75
2023-11-12T12:02:44.710Z,101383.81
2023-11-12T12:08:01.463Z,101380.53
2023-11-12T12:13:08.486Z,101385.78
2023-11-12T12:18:21.831Z,101384.84
2023-11-12T12:23:27.841Z,101386.72
2023-11-12T12:28:32.579Z,101379.75
2023-11-12T12:33:36.785Z,101378.13
2023-11-12T12:38:57.624Z,101376.38
2023-11-12T12:44:01.510Z,101372.88
2023-11-12T12:49:05.332Z,101374.69
2023-11-12T12:54:11.749Z,101368.47
2023-11-12T12:59:15.493Z,101374.53
2023-11-12T13:04:19.271Z,101377.94
2023-11-12T13:09:24.639Z,101386.84
2023-11-12T13:14:28.407Z,101386.06
2023-11-12T13:19:32.153Z,101384.25
2023-11-12T13:24:37.531Z,101381.63
2023-11-12T13:29:41.970Z,101378.13
2023-11-12T13:34:45.661Z,101374.69
2023-11-12T13:39:52.112Z,101376.34
2023-11-12T13:44:56.344Z,101381.53
2023-11-12T13:50:00.167Z,101375.41
2023-11-12T13:55:06.055Z,101376.19
2023-11-12T14:00:11.049Z,101374.31
2023-11-12T14:05:14.792Z,101371.22
2023-11-12T14:10:20.220Z,101369.59
2023-11-12T14:15:24.067Z,101356.06
2023-11-12T14:20:27.939Z,101357.16
2023-11-12T14:25:33.323Z,101353.69
2023-11-12T14:30:37.060Z,101347.53
2023-11-12T14:35:40.783Z,101345.91
2023-11-12T14:40:46.319Z,101349.41
2023-11-12T14:45:50.250Z,101338.97
2023-11-12T14:50:54.128Z,101347.56
2023-11-12T14:55:59.581Z,101330.16
2023-11-12T15:01:03.309Z,101331.78
2023-11-12T15:06:07.460Z,101342.25
2023-11-12T15:11:13.404Z,101336.72
2023-11-12T15:16:20.339Z,101335.53
2023-11-12T15:21:24.295Z,101338.88
2023-11-12T15:26:29.753Z,101348.34
2023-11-12T15:31:33.513Z,101342.66
2023-11-12T15:36:37.270Z,101350.91
2023-11-12T15:41:42.753Z,101349.09
2023-11-12T15:46:46.542Z,101352.28
2023-11-12T15:51:50.345Z,101359.78
2023-11-12T15:56:56.684Z,101359.00
2023-11-12T16:02:00.380Z,101364.16
2023-11-12T16:07:04.211Z,101364.84
2023-11-12T16:12:10.511Z,101363.72
2023-11-12T16:17:14.327Z,101375.72
2023-11-12T16:22:18.676Z,101382.53
2023-11-12T16:27:24.073Z,101380.47
2023-11-12T16:32:28.727Z,101383.25
2023-11-12T16:37:32.969Z,101376.38
2023-11-12T16:42:38.377Z,101385.91
2023-11-12T16:47:42.306Z,101381.25
2023-11-12T16:52:47.017Z,101397.81
2023-11-12T16:57:52.767Z,101399.97
2023-11-12T17:02:56.657Z,101397.66
2023-11-12T17:08:01.504Z,101396.50
2023-11-12T17:13:06.968Z,101391.06
2023-11-12T17:18:10.792Z,101391.91
2023-11-12T17:23:14.575Z,101391.72
2023-11-12T17:28:19.939Z,101382.03
2023-11-12T17:33:23.669Z,101392.00
2023-11-12T17:38:27.358Z,101376.13
2023-11-12T17:43:33.009Z,101381.22
2023-11-12T17:48:36.053Z,101376.81
2023-11-12T17:53:41.388Z,101382.13
2023-11-12T17:58:46.841Z,101377.59
2023-11-12T18:03:50.720Z,101378.56
2023-11-12T18:08:54.602Z,101367.31
2023-11-12T18:13:59.962Z,101367.38
2023-11-12T18:19:03.663Z,101362.66
2023-11-12T18:24:07.853Z,101356.81
2023-11-12T18:29:13.266Z,101357.03
2023-11-12T18:34:17.017Z,101343.81
2023-11-12T18:39:20.791Z,101328.13
2023-11-12T18:44:28.352Z,101334.56
2023-11-12T18:49:32.083Z,101322.69
2023-11-12T18:54:35.828Z,101318.38
2023-11-12T18:59:41.521Z,101317.56
2023-11-12T19:04:45.356Z,101314.31
2023-11-12T19:09:49.091Z,101308.50
2023-11-12T19:14:55.624Z,101283.75
2023-11-12T19:19:59.367Z,101281.75
2023-11-12T19:25:03.184Z,101274.28
2023-11-12T19:30:15.165Z,101258.03
2023-11-12T19:35:20.382Z,101250.81
2023-11-12T19:40:24.285Z,101238.06
2023-11-12T19:45:30.651Z,101227.69
2023-11-12T19:50:34.417Z,101210.00
2023-11-12T19:55:38.123Z,101213.75
2023-11-12T20:00:43.491Z,101202.13
2023-11-12T20:05:46.779Z,101192.47
2023-11-12T20:10:50.609Z,101171.69
2023-11-12T20:15:56.092Z,101168.53
2023-11-12T20:20:59.843Z,101160.34
2023-11-12T20:26:04.033Z,101150.88
2023-11-12T20:31:09.629Z,101163.00
2023-11-12T20:36:13.398Z,101151.44
2023-11-12T20:41:17.110Z,101143.34
2023-11-12T20:46:22.558Z,101130.31
2023-11-12T20:51:26.388Z,101124.84
2023-11-12T20:56:30.087Z,101110.22
2023-11-12T21:01:39.101Z,101106.53
2023-11-12T21:06:43.620Z,101091.69
2023-11-12T21:11:49.094Z,101077.88
2023-11-12T21:16:54.762Z,101073.91
2023-11-12T21:21:58.585Z,101064.63
2023-11-12T21:27:02.290Z,101055.53
2023-11-12T21:32:08.266Z,101055.34
2023-11-12T21:37:12.016Z,101033.63
2023-11-12T21:42:15.738Z,101035.03
2023-11-12T21:47:21.907Z,101026.44
2023-11-12T21:52:25.625Z,101027.47
2023-11-12T21:57:29.322Z,101014.97
2023-11-12T22:02:34.685Z,101033.41
2023-11-12T22:07:37.634Z,101032.06
2023-11-12T22:12:41.382Z,101026.75
2023-11-12T22:17:47.795Z,101026.28
2023-11-12T22:22:51.531Z,101006.00
2023-11-12T22:27:55.253Z,101004.59
2023-11-12T22:33:01.681Z,101001.72
2023-11-12T22:38:05.391Z,101006.38
2023-11-12T22:43:09.126Z,100991.41
2023-11-12T22:48:14.506Z,100984.47
2023-11-12T22:53:17.462Z,100979.97
2023-11-12T22:58:21.321Z,100980.94
2023-11-12T23:03:28.180Z,100976.31
2023-11-12T23:08:31.944Z,100984.25
2023-11-12T23:13:35.693Z,100976.81
2023-11-12T23:18:41.044Z,100964.88
2023-11-12T23:23:44.760Z,100962.00
2023-11-12T23:28:48.534Z,100956.63
2023-11-12T23:33:54.007Z,100955.69
2023-11-12T23:38:57.898Z,100963.38
2023-11-12T23:44:01.807Z,100957.66
2023-11-12T23:49:07.272Z,100969.31
2023-11-12T23:54:10.242Z,100963.38
2023-11-12T23:59:14.060Z,100971.88
